Time;durP1;ratioP1;P1;durP2;ratioP2;P2;SDS_P1;SDS_P2;PMS_P1;PMS_P2;Temp;Humidity;BMP_temperature;BMP_pressure;BME280_temperature;BME280_humidity;BME280_pressure;Samples;Min_cycle;Max_cycle;Signal;HPM_P1;HPM_P2
2023/07/02 00:01:41;;;;;;;;;;;19.70;80.80;;;;;;5112577;28;20002;-67
2023/07/02 00:04:08;;;;;;;;;;;19.60;80.90;;;;;;5112697;28;19912;-67
2023/07/02 00:06:40;;;;;;;;;;;19.60;80.80;;;;;;5112044;28;20441;-68
2023/07/02 00:09:11;;;;;;;;;;;19.60;80.90;;;;;;5112708;28;19916;-67
2023/07/02 00:11:40;;;;;;;;;;;19.60;80.90;;;;;;5112290;28;20439;-68
2023/07/02 00:14:06;;;;;;;;;;;19.60;81.20;;;;;;5112419;28;20483;-68
2023/07/02 00:16:32;;;;;;;;;;;19.60;80.90;;;;;;5112216;28;19916;-67
2023/07/02 00:18:59;;;;;;;;;;;19.60;81.00;;;;;;5112435;28;20567;-68
2023/07/02 00:21:27;;;;;;;;;;;19.60;80.70;;;;;;5111636;28;19918;-68
2023/07/02 00:23:54;;;;;;;;;;;19.60;80.80;;;;;;5111736;28;19925;-68
2023/07/02 00:26:20;;;;;;;;;;;19.60;81.80;;;;;;5111967;28;19935;-68
2023/07/02 00:28:45;;;;;;;;;;;19.50;81.10;;;;;;5112054;28;20007;-68
2023/07/02 00:31:10;;;;;;;;;;;19.50;81.30;;;;;;5112183;28;20273;-68
2023/07/02 00:33:36;;;;;;;;;;;19.50;81.20;;;;;;5112190;28;19915;-68
2023/07/02 00:36:02;;;;;;;;;;;19.50;81.00;;;;;;5111531;28;19912;-67
2023/07/02 00:38:27;;;;;;;;;;;19.50;81.00;;;;;;5112273;28;20468;-68
2023/07/02 00:40:53;;;;;;;;;;;19.50;81.10;;;;;;5110427;28;19938;-67
2023/07/02 00:43:18;;;;;;;;;;;19.50;81.10;;;;;;5111688;27;19912;-68
2023/07/02 00:45:45;;;;;;;;;;;19.50;81.10;;;;;;5111675;28;20276;-68
2023/07/02 00:48:10;;;;;;;;;;;19.40;81.20;;;;;;5111919;28;19915;-67
2023/07/02 00:50:36;;;;;;;;;;;19.40;81.10;;;;;;5111758;28;19992;-68
2023/07/02 00:53:02;;;;;;;;;;;19.40;81.00;;;;;;5110408;28;19912;-68
2023/07/02 00:55:27;;;;;;;;;;;19.40;81.20;;;;;;5111637;28;19922;-68
2023/07/02 00:57:53;;;;;;;;;;;19.40;81.10;;;;;;5109810;28;19912;-67
2023/07/02 01:00:19;;;;;;;;;;;19.40;81.20;;;;;;5111817;28;19915;-67
2023/07/02 01:02:57;;;;;;;;;;;19.40;81.50;;;;;;5111633;28;20365;-68
2023/07/02 01:05:23;;;;;;;;;;;19.40;81.20;;;;;;5111300;28;20249;-68
2023/07/02 01:07:49;;;;;;;;;;;19.40;81.00;;;;;;5111262;28;19915;-68
2023/07/02 01:10:14;;;;;;;;;;;19.40;81.20;;;;;;5111536;28;19968;-67
2023/07/02 01:12:40;;;;;;;;;;;19.40;81.20;;;;;;5110862;28;19919;-67
2023/07/02 01:15:06;;;;;;;;;;;19.30;81.10;;;;;;5111467;28;19964;-68
2023/07/02 01:17:37;;;;;;;;;;;19.30;81.10;;;;;;5111494;28;19912;-68
2023/07/02 01:20:03;;;;;;;;;;;19.30;81.00;;;;;;5110955;27;19912;-67
2023/07/02 01:22:30;;;;;;;;;;;19.30;81.70;;;;;;5110854;28;19916;-68
2023/07/02 01:24:55;;;;;;;;;;;19.30;81.60;;;;;;5110929;28;19918;-68
2023/07/02 01:27:21;;;;;;;;;;;19.30;81.50;;;;;;5110691;28;19916;-68
2023/07/02 01:29:47;;;;;;;;;;;19.20;81.30;;;;;;5116552;27;19911;-68
2023/07/02 01:32:13;;;;;;;;;;;19.20;81.70;;;;;;5126417;27;20319;-67
2023/07/02 01:34:38;;;;;;;;;;;19.20;81.60;;;;;;5110869;28;19920;-67
2023/07/02 01:37:04;;;;;;;;;;;19.10;81.70;;;;;;5110630;28;19973;-67
2023/07/02 01:39:30;;;;;;;;;;;19.20;81.50;;;;;;5110998;28;20260;-68
2023/07/02 01:42:06;;;;;;;;;;;19.10;81.50;;;;;;5110653;28;19908;-67
2023/07/02 01:44:32;;;;;;;;;;;19.10;81.90;;;;;;5110876;28;19949;-68
2023/07/02 01:46:58;;;;;;;;;;;19.10;81.70;;;;;;5110448;27;19920;-68
2023/07/02 01:49:24;;;;;;;;;;;19.10;81.80;;;;;;5110705;28;19912;-68
2023/07/02 01:51:52;;;;;;;;;;;19.10;81.70;;;;;;5110420;28;19911;-68
2023/07/02 01:54:18;;;;;;;;;;;19.00;81.50;;;;;;5110195;28;20015;-68
2023/07/02 01:56:44;;;;;;;;;;;19.10;81.70;;;;;;5110075;28;19919;-68
2023/07/02 01:59:11;;;;;;;;;;;19.10;81.60;;;;;;5110476;28;19915;-68
2023/07/02 02:01:40;;;;;;;;;;;19.10;81.70;;;;;;5110501;28;19922;-68
2023/07/02 02:04:06;;;;;;;;;;;19.00;81.60;;;;;;5110141;28;19923;-67
2023/07/02 02:06:31;;;;;;;;;;;19.00;81.50;;;;;;5109964;27;19911;-67
2023/07/02 02:08:57;;;;;;;;;;;19.00;81.70;;;;;;5110251;28;19951;-67
2023/07/02 02:11:23;;;;;;;;;;;19.00;81.80;;;;;;5109179;28;19912;-68
2023/07/02 02:13:49;;;;;;;;;;;19.00;82.10;;;;;;5108684;28;20006;-68
2023/07/02 02:16:15;;;;;;;;;;;19.00;82.40;;;;;;5109676;28;19908;-68
2023/07/02 02:18:41;;;;;;;;;;;19.00;82.10;;;;;;5110189;28;19912;-68
2023/07/02 02:21:06;;;;;;;;;;;18.90;82.00;;;;;;5101848;28;19943;-68
2023/07/02 02:23:32;;;;;;;;;;;18.90;82.00;;;;;;5109529;28;19919;-67
2023/07/02 02:25:57;;;;;;;;;;;18.90;81.90;;;;;;5109398;28;20419;-67
2023/07/02 02:28:23;;;;;;;;;;;18.90;82.10;;;;;;5109950;28;20057;-68
2023/07/02 02:30:48;;;;;;;;;;;18.80;82.50;;;;;;5108744;28;20032;-68
2023/07/02 02:33:14;;;;;;;;;;;18.90;82.10;;;;;;5109920;28;20379;-68
2023/07/02 02:35:39;;;;;;;;;;;18.90;82.00;;;;;;5109088;28;20117;-68
2023/07/02 02:38:05;;;;;;;;;;;18.80;81.80;;;;;;5109649;28;19911;-68
2023/07/02 02:40:30;;;;;;;;;;;18.80;81.80;;;;;;5109686;28;20499;-68
2023/07/02 02:42:56;;;;;;;;;;;18.80;82.00;;;;;;5109384;28;19912;-67
2023/07/02 02:45:21;;;;;;;;;;;18.80;81.80;;;;;;5109304;28;19942;-68
2023/07/02 02:47:47;;;;;;;;;;;18.90;81.70;;;;;;5109472;28;19912;-67
2023/07/02 02:50:12;;;;;;;;;;;18.90;81.70;;;;;;5109933;28;20558;-68
2023/07/02 02:52:38;;;;;;;;;;;18.90;81.70;;;;;;5107871;28;19912;-68
2023/07/02 02:55:06;;;;;;;;;;;18.80;81.80;;;;;;5109468;28;19912;-68
2023/07/02 02:57:31;;;;;;;;;;;18.80;81.80;;;;;;5109063;28;19912;-68
2023/07/02 02:59:57;;;;;;;;;;;18.80;81.70;;;;;;5109455;28;20368;-67
2023/07/02 03:02:22;;;;;;;;;;;18.80;81.80;;;;;;5109300;28;19908;-68
2023/07/02 03:04:49;;;;;;;;;;;18.80;81.70;;;;;;5109139;28;20445;-68
2023/07/02 03:07:15;;;;;;;;;;;18.80;81.60;;;;;;5108814;27;19911;-68
2023/07/02 03:09:41;;;;;;;;;;;18.80;81.60;;;;;;5109123;28;19911;-68
2023/07/02 03:12:06;;;;;;;;;;;18.80;81.60;;;;;;5109086;28;20352;-68
2023/07/02 03:14:32;;;;;;;;;;;18.80;81.60;;;;;;5109107;28;19916;-68
2023/07/02 03:16:58;;;;;;;;;;;18.80;81.60;;;;;;5108984;28;19918;-68
2023/07/02 03:19:24;;;;;;;;;;;18.70;81.70;;;;;;5109194;28;20268;-68
2023/07/02 03:21:49;;;;;;;;;;;18.70;81.70;;;;;;5108179;28;19933;-68
2023/07/02 03:24:15;;;;;;;;;;;18.70;81.60;;;;;;5107532;28;19920;-68
2023/07/02 03:26:42;;;;;;;;;;;18.70;81.70;;;;;;5108458;28;19964;-68
2023/07/02 03:29:07;;;;;;;;;;;18.70;81.60;;;;;;5108853;28;19911;-68
2023/07/02 03:31:33;;;;;;;;;;;18.70;81.60;;;;;;5108838;28;19964;-68
2023/07/02 03:33:59;;;;;;;;;;;18.70;81.60;;;;;;5108913;28;19965;-68
2023/07/02 03:36:25;;;;;;;;;;;18.70;81.60;;;;;;5107081;28;19907;-68
2023/07/02 03:38:50;;;;;;;;;;;18.70;81.70;;;;;;5109088;28;19915;-68
2023/07/02 03:41:16;;;;;;;;;;;18.70;81.70;;;;;;5117645;27;20392;-68
2023/07/02 03:43:41;;;;;;;;;;;18.70;81.60;;;;;;5108945;28;20424;-68
2023/07/02 03:46:07;;;;;;;;;;;18.70;81.60;;;;;;5107445;28;19912;-68
2023/07/02 03:48:32;;;;;;;;;;;18.70;81.70;;;;;;5108632;28;19915;-69
2023/07/02 03:50:58;;;;;;;;;;;18.70;82.10;;;;;;5108539;28;20379;-68
2023/07/02 03:53:23;;;;;;;;;;;18.70;81.60;;;;;;5108593;28;20709;-68
2023/07/02 03:55:49;;;;;;;;;;;18.60;81.70;;;;;;5107983;28;19912;-68
2023/07/02 03:58:14;;;;;;;;;;;18.70;81.80;;;;;;5108046;28;19947;-68
2023/07/02 04:00:41;;;;;;;;;;;18.60;81.60;;;;;;5108668;28;19966;-68
2023/07/02 04:03:07;;;;;;;;;;;18.60;81.60;;;;;;5107537;28;20640;-67
2023/07/02 04:05:32;;;;;;;;;;;18.70;81.70;;;;;;5108180;28;19912;-67
2023/07/02 04:07:58;;;;;;;;;;;18.60;81.70;;;;;;5108670;28;19913;-67
2023/07/02 04:10:23;;;;;;;;;;;18.70;81.70;;;;;;5108473;28;19912;-67
2023/07/02 04:12:49;;;;;;;;;;;18.60;81.40;;;;;;5108474;28;20022;-67
2023/07/02 04:15:14;;;;;;;;;;;18.60;81.50;;;;;;5108598;28;19918;-67
2023/07/02 04:17:40;;;;;;;;;;;18.70;81.60;;;;;;5108307;28;19912;-67
2023/07/02 04:20:07;;;;;;;;;;;18.60;81.50;;;;;;5107001;28;19915;-67
2023/07/02 04:22:33;;;;;;;;;;;18.60;81.40;;;;;;5102233;28;19916;-67
2023/07/02 04:24:58;;;;;;;;;;;18.60;81.50;;;;;;5108612;28;19911;-68
2023/07/02 04:27:24;;;;;;;;;;;18.60;81.60;;;;;;5106627;28;19918;-68
2023/07/02 04:29:50;;;;;;;;;;;18.60;81.60;;;;;;5108595;28;20370;-67
2023/07/02 04:32:15;;;;;;;;;;;18.60;81.60;;;;;;5108335;28;19908;-67
2023/07/02 04:34:41;;;;;;;;;;;18.60;81.50;;;;;;5111321;28;19922;-67
2023/07/02 04:37:09;;;;;;;;;;;18.60;81.60;;;;;;5111582;28;19919;-67
2023/07/02 04:39:35;;;;;;;;;;;18.60;81.60;;;;;;5111862;28;19911;-67
2023/07/02 04:42:00;;;;;;;;;;;18.60;81.60;;;;;;5110693;28;19950;-68
2023/07/02 04:44:29;;;;;;;;;;;18.60;81.60;;;;;;5112093;28;19912;-68
2023/07/02 04:46:58;;;;;;;;;;;18.60;81.50;;;;;;5111535;28;20349;-67
2023/07/02 04:49:24;;;;;;;;;;;18.60;81.60;;;;;;5112075;27;20006;-68
2023/07/02 04:51:49;;;;;;;;;;;18.60;81.50;;;;;;5111286;28;20036;-68
2023/07/02 04:54:15;;;;;;;;;;;18.60;81.60;;;;;;5111870;28;19915;-67
2023/07/02 04:56:40;;;;;;;;;;;18.60;81.60;;;;;;5111207;28;20019;-67
2023/07/02 04:59:06;;;;;;;;;;;18.60;81.60;;;;;;5111241;28;20337;-68
2023/07/02 05:01:31;;;;;;;;;;;18.60;81.70;;;;;;5111126;28;19919;-68
2023/07/02 05:03:57;;;;;;;;;;;18.60;81.60;;;;;;5110924;28;19911;-68
2023/07/02 05:06:22;;;;;;;;;;;18.60;81.60;;;;;;5109690;28;19930;-67
2023/07/02 05:08:48;;;;;;;;;;;18.60;81.60;;;;;;5111475;28;19955;-68
2023/07/02 05:11:13;;;;;;;;;;;18.60;81.40;;;;;;5111167;28;19911;-68
2023/07/02 05:13:39;;;;;;;;;;;18.60;81.60;;;;;;5111517;28;19916;-67
2023/07/02 05:16:04;;;;;;;;;;;18.60;81.40;;;;;;5111351;28;19919;-67
2023/07/02 05:18:30;;;;;;;;;;;18.60;81.60;;;;;;5111514;28;19942;-68
2023/07/02 05:20:55;;;;;;;;;;;18.70;81.60;;;;;;5110695;28;19968;-68
2023/07/02 05:23:21;;;;;;;;;;;18.60;81.50;;;;;;5110701;28;19919;-68
2023/07/02 05:25:48;;;;;;;;;;;18.60;81.70;;;;;;5108529;28;20287;-67
2023/07/02 05:28:13;;;;;;;;;;;18.60;81.50;;;;;;5111072;28;19951;-67
2023/07/02 05:30:39;;;;;;;;;;;18.60;81.50;;;;;;5110551;28;19914;-68
2023/07/02 05:33:04;;;;;;;;;;;18.60;81.50;;;;;;5109802;28;19912;-68
2023/07/02 05:35:30;;;;;;;;;;;18.70;81.60;;;;;;5103007;28;19938;-67
2023/07/02 05:37:55;;;;;;;;;;;18.60;81.60;;;;;;5110699;28;19953;-67
2023/07/02 05:40:21;;;;;;;;;;;18.70;81.60;;;;;;5110943;28;19939;-67
2023/07/02 05:42:46;;;;;;;;;;;18.70;81.50;;;;;;5115492;27;20545;-68
2023/07/02 05:45:12;;;;;;;;;;;18.70;81.70;;;;;;5131189;27;19937;-68
2023/07/02 05:47:37;;;;;;;;;;;18.70;81.90;;;;;;5131174;27;20048;-68
2023/07/02 05:50:03;;;;;;;;;;;18.70;81.50;;;;;;5131345;27;19976;-67
2023/07/02 05:52:29;;;;;;;;;;;18.70;81.40;;;;;;5131291;27;19964;-67
2023/07/02 05:54:54;;;;;;;;;;;18.70;81.40;;;;;;5131199;27;19915;-68
2023/07/02 05:57:20;;;;;;;;;;;18.70;81.30;;;;;;5130876;27;19915;-67
2023/07/02 05:59:45;;;;;;;;;;;18.80;81.30;;;;;;5130953;27;20006;-68
2023/07/02 06:02:11;;;;;;;;;;;18.70;81.50;;;;;;5130973;27;19912;-68
2023/07/02 06:04:36;;;;;;;;;;;18.80;81.70;;;;;;5118606;27;20003;-68
2023/07/02 06:07:02;;;;;;;;;;;18.80;81.40;;;;;;5109791;28;19911;-68
2023/07/02 06:09:27;;;;;;;;;;;18.80;81.40;;;;;;5109044;28;19973;-68
2023/07/02 06:11:53;;;;;;;;;;;18.80;81.20;;;;;;5110099;28;19919;-68
2023/07/02 06:14:18;;;;;;;;;;;18.80;81.90;;;;;;5110102;28;19931;-68
2023/07/02 06:16:44;;;;;;;;;;;18.80;81.30;;;;;;5109824;28;20417;-68
2023/07/02 06:19:09;;;;;;;;;;;18.80;81.20;;;;;;5110201;28;20265;-67
2023/07/02 06:21:35;;;;;;;;;;;18.80;81.20;;;;;;5101937;28;19965;-68
2023/07/02 06:24:01;;;;;;;;;;;18.80;81.40;;;;;;5109280;28;20623;-67
2023/07/02 06:26:27;;;;;;;;;;;18.80;81.30;;;;;;5107833;28;19922;-68
2023/07/02 06:28:53;;;;;;;;;;;18.80;81.30;;;;;;5108285;28;19925;-68
2023/07/02 06:31:18;;;;;;;;;;;18.80;81.40;;;;;;5109741;27;19950;-67
2023/07/02 06:33:44;;;;;;;;;;;18.80;81.10;;;;;;5109727;28;19915;-68
2023/07/02 06:36:10;;;;;;;;;;;18.80;81.10;;;;;;5109106;28;20130;-67
2023/07/02 06:38:36;;;;;;;;;;;18.80;81.10;;;;;;5109693;28;19912;-68
2023/07/02 06:41:01;;;;;;;;;;;18.90;81.10;;;;;;5109518;28;20325;-67
2023/07/02 06:43:27;;;;;;;;;;;18.90;81.10;;;;;;5109570;28;20002;-68
2023/07/02 06:45:52;;;;;;;;;;;18.90;81.10;;;;;;5109313;28;19912;-67
2023/07/02 06:48:21;;;;;;;;;;;18.90;81.10;;;;;;5109639;28;19944;-67
2023/07/02 06:50:46;;;;;;;;;;;18.90;81.20;;;;;;5108127;28;19911;-68
2023/07/02 06:53:12;;;;;;;;;;;18.90;81.10;;;;;;5109607;28;19911;-68
2023/07/02 06:55:38;;;;;;;;;;;18.90;81.10;;;;;;5108944;28;19937;-68
2023/07/02 06:58:07;;;;;;;;;;;18.90;81.00;;;;;;5109165;28;20365;-68
2023/07/02 07:00:35;;;;;;;;;;;18.90;81.00;;;;;;5109489;27;19911;-68
2023/07/02 07:03:02;;;;;;;;;;;18.90;80.70;;;;;;5109270;28;20314;-68
2023/07/02 07:05:29;;;;;;;;;;;18.90;80.70;;;;;;5108931;28;19916;-68
2023/07/02 07:07:54;;;;;;;;;;;18.90;80.70;;;;;;5109262;28;19912;-68
2023/07/02 07:10:20;;;;;;;;;;;18.80;80.20;;;;;;5109572;28;19958;-68
2023/07/02 07:12:45;;;;;;;;;;;18.80;80.50;;;;;;5109274;28;20344;-68
2023/07/02 07:15:11;;;;;;;;;;;18.90;80.40;;;;;;5108930;28;20333;-68
2023/07/02 07:17:36;;;;;;;;;;;18.90;80.40;;;;;;5101435;28;19912;-67
2023/07/02 07:20:04;;;;;;;;;;;19.00;80.30;;;;;;5106575;28;19916;-67
2023/07/02 07:22:30;;;;;;;;;;;19.00;80.20;;;;;;5108308;28;19965;-68
2023/07/02 07:24:55;;;;;;;;;;;19.00;79.50;;;;;;5108822;28;19908;-68
2023/07/02 07:27:21;;;;;;;;;;;19.00;79.70;;;;;;5108609;28;19946;-68
2023/07/02 07:29:46;;;;;;;;;;;19.00;79.20;;;;;;5109288;28;19919;-68
2023/07/02 07:32:12;;;;;;;;;;;19.10;79.60;;;;;;5107608;28;19920;-67
2023/07/02 07:34:38;;;;;;;;;;;19.10;79.40;;;;;;5108986;28;19958;-68
2023/07/02 07:37:03;;;;;;;;;;;19.10;79.10;;;;;;5108483;28;20412;-67
2023/07/02 07:39:29;;;;;;;;;;;19.00;79.10;;;;;;5109260;28;19916;-68
2023/07/02 07:41:54;;;;;;;;;;;19.10;79.30;;;;;;5108581;28;20260;-68
2023/07/02 07:44:20;;;;;;;;;;;19.10;78.70;;;;;;5107621;28;19912;-68
2023/07/02 07:46:45;;;;;;;;;;;19.10;79.00;;;;;;5108532;28;19998;-68
2023/07/02 07:49:12;;;;;;;;;;;19.10;79.00;;;;;;5114564;28;20563;-68
2023/07/02 07:51:38;;;;;;;;;;;19.10;78.40;;;;;;5129097;27;19912;-67
2023/07/02 07:54:03;;;;;;;;;;;19.20;78.60;;;;;;5129419;27;19916;-68
2023/07/02 07:56:29;;;;;;;;;;;19.20;78.20;;;;;;5128934;27;20454;-68
2023/07/02 07:58:54;;;;;;;;;;;19.20;77.90;;;;;;5129451;27;19911;-68
2023/07/02 08:01:20;;;;;;;;;;;19.20;77.10;;;;;;5129231;27;19922;-67
2023/07/02 08:03:46;;;;;;;;;;;19.20;76.40;;;;;;5115104;27;19972;-68
2023/07/02 08:06:11;;;;;;;;;;;19.20;77.20;;;;;;5107975;28;20416;-68
2023/07/02 08:08:37;;;;;;;;;;;19.20;77.20;;;;;;5110251;28;19919;-68
2023/07/02 08:11:03;;;;;;;;;;;19.30;75.80;;;;;;5112553;28;19912;-68
2023/07/02 08:13:28;;;;;;;;;;;19.30;76.10;;;;;;5112420;28;20004;-68
2023/07/02 08:15:53;;;;;;;;;;;19.30;77.10;;;;;;5112342;28;20268;-68
2023/07/02 08:18:19;;;;;;;;;;;19.30;76.90;;;;;;5112350;28;19912;-68
2023/07/02 08:20:44;;;;;;;;;;;19.30;76.50;;;;;;5110409;28;19911;-68
2023/07/02 08:23:11;;;;;;;;;;;19.30;76.80;;;;;;5110478;28;19927;-68
2023/07/02 08:25:37;;;;;;;;;;;19.40;76.90;;;;;;5109988;28;19919;-68
2023/07/02 08:28:02;;;;;;;;;;;19.40;76.60;;;;;;5110303;28;19912;-68
2023/07/02 08:30:28;;;;;;;;;;;19.40;76.50;;;;;;5111426;28;20365;-68
2023/07/02 08:32:55;;;;;;;;;;;19.50;76.00;;;;;;5111431;28;19984;-68
2023/07/02 08:35:20;;;;;;;;;;;19.50;74.90;;;;;;5111026;28;19924;-68
2023/07/02 08:37:46;;;;;;;;;;;19.50;76.10;;;;;;5099911;28;19920;-69
2023/07/02 08:40:18;;;;;;;;;;;19.50;75.40;;;;;;5114153;27;20276;-68
2023/07/02 08:42:44;;;;;;;;;;;19.60;75.70;;;;;;5114228;27;19912;-67
2023/07/02 08:45:11;;;;;;;;;;;19.60;75.60;;;;;;5107187;28;20057;-68
2023/07/02 08:47:36;;;;;;;;;;;19.60;75.40;;;;;;5119022;27;19912;-68
2023/07/02 08:50:03;;;;;;;;;;;19.60;74.90;;;;;;5110829;28;19922;-68
2023/07/02 08:52:28;;;;;;;;;;;19.60;75.20;;;;;;5110502;28;19958;-68
2023/07/02 08:54:54;;;;;;;;;;;19.60;75.00;;;;;;5110720;28;20349;-68
2023/07/02 08:57:21;;;;;;;;;;;19.60;74.50;;;;;;5110487;28;19926;-69
2023/07/02 08:59:47;;;;;;;;;;;19.60;73.70;;;;;;5110272;28;19912;-68
2023/07/02 09:02:13;;;;;;;;;;;19.60;73.70;;;;;;5110799;28;19919;-68
2023/07/02 09:04:38;;;;;;;;;;;19.70;74.50;;;;;;5110800;28;20614;-69
2023/07/02 09:07:08;;;;;;;;;;;19.80;73.90;;;;;;5110213;28;19934;-68
2023/07/02 09:09:43;;;;;;;;;;;19.90;72.70;;;;;;5110741;28;19912;-68
2023/07/02 09:12:09;;;;;;;;;;;19.80;73.80;;;;;;5110413;28;19912;-68
2023/07/02 09:14:34;;;;;;;;;;;19.90;72.80;;;;;;5110461;28;19923;-68
2023/07/02 09:17:09;;;;;;;;;;;19.90;72.60;;;;;;5110264;28;19908;-69
2023/07/02 09:19:35;;;;;;;;;;;19.90;73.40;;;;;;5110034;28;19912;-68
2023/07/02 09:22:01;;;;;;;;;;;20.00;73.10;;;;;;5108038;28;19911;-68
2023/07/02 09:24:28;;;;;;;;;;;19.90;73.20;;;;;;5110262;27;20002;-68
2023/07/02 09:26:58;;;;;;;;;;;19.90;71.70;;;;;;5109664;28;19947;-68
2023/07/02 09:29:24;;;;;;;;;;;20.00;72.40;;;;;;5111131;28;20369;-68
2023/07/02 09:31:50;;;;;;;;;;;20.00;72.40;;;;;;5108664;28;19923;-68
2023/07/02 09:34:16;;;;;;;;;;;20.10;72.40;;;;;;5110227;28;19916;-68
2023/07/02 09:36:42;;;;;;;;;;;20.10;72.10;;;;;;5109703;28;19912;-68
2023/07/02 09:39:12;;;;;;;;;;;20.10;71.00;;;;;;5110000;28;19970;-68
2023/07/02 09:41:39;;;;;;;;;;;20.10;71.10;;;;;;5108446;28;19918;-68
2023/07/02 09:44:05;;;;;;;;;;;20.10;71.90;;;;;;5103976;27;19949;-68
2023/07/02 09:46:31;;;;;;;;;;;20.10;71.80;;;;;;5109108;28;19916;-68
2023/07/02 09:48:57;;;;;;;;;;;20.10;71.80;;;;;;5110502;27;19933;-68
2023/07/02 09:51:24;;;;;;;;;;;20.20;70.90;;;;;;5109192;28;20532;-68
2023/07/02 09:53:50;;;;;;;;;;;20.20;71.20;;;;;;5109611;28;19912;-68
2023/07/02 09:56:16;;;;;;;;;;;20.30;71.40;;;;;;5109720;28;19955;-69
2023/07/02 09:58:43;;;;;;;;;;;20.40;70.60;;;;;;5104319;28;19955;-68
2023/07/02 10:01:09;;;;;;;;;;;20.50;70.80;;;;;;5109478;28;19915;-68
2023/07/02 10:03:34;;;;;;;;;;;20.50;70.70;;;;;;5110520;28;19960;-68
2023/07/02 10:06:06;;;;;;;;;;;20.60;70.50;;;;;;5109847;28;19908;-68
2023/07/02 10:08:32;;;;;;;;;;;20.70;70.20;;;;;;5108685;28;19964;-68
2023/07/02 10:11:12;;;;;;;;;;;20.60;70.80;;;;;;5110319;28;19912;-68
2023/07/02 10:13:38;;;;;;;;;;;20.60;70.90;;;;;;5089556;28;19961;-69
2023/07/02 10:16:05;;;;;;;;;;;20.60;70.50;;;;;;5089582;28;20395;-69
2023/07/02 10:18:30;;;;;;;;;;;20.50;71.10;;;;;;5109897;28;19973;-68
2023/07/02 10:20:56;;;;;;;;;;;20.50;70.70;;;;;;5110050;28;20416;-68
2023/07/02 10:23:31;;;;;;;;;;;20.60;69.80;;;;;;5108596;28;19919;-68
2023/07/02 10:25:57;;;;;;;;;;;20.60;70.20;;;;;;5109474;28;19959;-68
2023/07/02 10:28:26;;;;;;;;;;;20.70;70.80;;;;;;5109813;28;19946;-68
2023/07/02 10:30:53;;;;;;;;;;;20.70;70.40;;;;;;5109210;28;20368;-68
2023/07/02 10:33:19;;;;;;;;;;;20.60;70.20;;;;;;5110654;27;19918;-68
2023/07/02 10:35:47;;;;;;;;;;;20.60;70.60;;;;;;5108484;28;20493;-69
2023/07/02 10:38:19;;;;;;;;;;;20.60;70.70;;;;;;5109604;28;20355;-68
2023/07/02 10:40:45;;;;;;;;;;;20.70;71.00;;;;;;5108237;28;19908;-68
2023/07/02 10:43:11;;;;;;;;;;;20.70;70.90;;;;;;5109373;28;19908;-69
2023/07/02 10:45:36;;;;;;;;;;;20.60;70.00;;;;;;5109153;28;19912;-68
2023/07/02 10:48:03;;;;;;;;;;;20.60;70.40;;;;;;5108200;28;19969;-68
2023/07/02 10:50:30;;;;;;;;;;;20.70;70.30;;;;;;5109669;28;19994;-68
2023/07/02 10:52:55;;;;;;;;;;;20.70;69.90;;;;;;5108863;28;19918;-68
2023/07/02 10:55:22;;;;;;;;;;;20.70;69.70;;;;;;5108247;28;20007;-68
2023/07/02 10:57:48;;;;;;;;;;;20.80;70.20;;;;;;5108448;28;19958;-68
2023/07/02 11:00:14;;;;;;;;;;;20.90;68.90;;;;;;5108322;28;19911;-68
2023/07/02 11:02:40;;;;;;;;;;;21.10;69.50;;;;;;5108244;28;20582;-68
2023/07/02 11:05:14;;;;;;;;;;;21.20;69.20;;;;;;5108180;28;19964;-68
2023/07/02 11:07:43;;;;;;;;;;;21.20;68.70;;;;;;5108054;27;19911;-68
2023/07/02 11:10:09;;;;;;;;;;;21.20;69.30;;;;;;5108414;28;20702;-68
2023/07/02 11:12:34;;;;;;;;;;;21.20;68.40;;;;;;5108071;28;19915;-68
2023/07/02 11:15:10;;;;;;;;;;;21.20;68.90;;;;;;5108025;28;19916;-68
2023/07/02 11:17:35;;;;;;;;;;;21.30;69.20;;;;;;5108246;28;19918;-68
2023/07/02 11:20:01;;;;;;;;;;;21.40;68.40;;;;;;5107083;28;20010;-68
2023/07/02 11:22:33;;;;;;;;;;;21.40;67.90;;;;;;5108120;28;19916;-68
2023/07/02 11:25:28;;;;;;;;;;;21.50;67.50;;;;;;5108318;28;19923;-68
2023/07/02 11:28:06;;;;;;;;;;;21.50;67.30;;;;;;5097517;28;19919;-68
2023/07/02 11:30:31;;;;;;;;;;;21.60;67.00;;;;;;5108280;28;19908;-68
2023/07/02 11:32:57;;;;;;;;;;;21.70;67.80;;;;;;5107984;28;19912;-68
2023/07/02 11:35:33;;;;;;;;;;;21.80;67.50;;;;;;5107859;28;20440;-68
2023/07/02 11:37:58;;;;;;;;;;;21.80;67.10;;;;;;5107932;28;19912;-68
2023/07/02 11:40:24;;;;;;;;;;;21.90;66.30;;;;;;5107978;28;19980;-68
2023/07/02 11:42:49;;;;;;;;;;;21.90;67.40;;;;;;5109699;28;19923;-68
2023/07/02 11:45:15;;;;;;;;;;;21.90;66.80;;;;;;5112095;28;19922;-68
2023/07/02 11:47:40;;;;;;;;;;;22.00;66.70;;;;;;5112152;28;19912;-68
2023/07/02 11:50:06;;;;;;;;;;;21.90;67.20;;;;;;5112280;28;19918;-68
2023/07/02 11:52:32;;;;;;;;;;;22.00;66.40;;;;;;5112050;28;19951;-68
2023/07/02 11:54:57;;;;;;;;;;;22.10;67.30;;;;;;5111434;28;19951;-68
2023/07/02 11:57:23;;;;;;;;;;;22.20;66.80;;;;;;5113930;27;19924;-68
2023/07/02 11:59:49;;;;;;;;;;;22.20;66.70;;;;;;5132511;27;19964;-68
2023/07/02 12:02:15;;;;;;;;;;;22.20;67.00;;;;;;5132302;27;19908;-68
2023/07/02 12:04:40;;;;;;;;;;;22.20;66.80;;;;;;5131015;27;19911;-68
2023/07/02 12:07:06;;;;;;;;;;;22.20;65.90;;;;;;5110226;28;20014;-68
2023/07/02 12:09:31;;;;;;;;;;;22.30;66.10;;;;;;5112481;28;19951;-68
2023/07/02 12:11:57;;;;;;;;;;;22.20;66.20;;;;;;5112335;28;20424;-68
2023/07/02 12:14:22;;;;;;;;;;;22.30;66.90;;;;;;5112414;28;19922;-68
2023/07/02 12:16:48;;;;;;;;;;;22.30;66.50;;;;;;5112113;28;19911;-68
2023/07/02 12:19:13;;;;;;;;;;;22.40;66.00;;;;;;5112564;28;20651;-68
2023/07/02 12:21:39;;;;;;;;;;;22.50;64.50;;;;;;5112075;28;20010;-68
2023/07/02 12:24:08;;;;;;;;;;;22.60;65.40;;;;;;5112399;28;19924;-68
2023/07/02 12:26:34;;;;;;;;;;;22.70;64.40;;;;;;5111990;28;19934;-68
2023/07/02 12:29:00;;;;;;;;;;;22.70;66.70;;;;;;5112321;28;19957;-68
2023/07/02 12:31:25;;;;;;;;;;;22.70;65.70;;;;;;5112141;28;19935;-68
2023/07/02 12:33:51;;;;;;;;;;;22.70;64.50;;;;;;5111829;28;20455;-68
2023/07/02 12:36:16;;;;;;;;;;;22.70;65.50;;;;;;5111532;28;19911;-69
2023/07/02 12:38:42;;;;;;;;;;;22.70;65.10;;;;;;5112086;28;19912;-68
2023/07/02 12:41:07;;;;;;;;;;;22.70;64.50;;;;;;5111902;28;20398;-69
2023/07/02 12:43:33;;;;;;;;;;;22.70;65.50;;;;;;5110656;28;20304;-68
2023/07/02 12:45:58;;;;;;;;;;;22.70;65.20;;;;;;5111881;28;19923;-68
2023/07/02 12:48:24;;;;;;;;;;;22.70;65.30;;;;;;5111930;28;19912;-68
2023/07/02 12:50:53;;;;;;;;;;;22.70;64.90;;;;;;5111847;28;20774;-68
2023/07/02 12:53:19;;;;;;;;;;;22.70;64.10;;;;;;5109654;28;20293;-68
2023/07/02 12:55:44;;;;;;;;;;;22.70;65.00;;;;;;5110355;28;19912;-69
2023/07/02 12:58:10;;;;;;;;;;;22.80;64.70;;;;;;5111631;28;20009;-68
2023/07/02 13:00:36;;;;;;;;;;;22.80;64.90;;;;;;5111818;28;19908;-68
2023/07/02 13:03:02;;;;;;;;;;;22.90;64.70;;;;;;5110289;28;20047;-68
2023/07/02 13:05:27;;;;;;;;;;;23.00;64.90;;;;;;5111192;28;19911;-68
2023/07/02 13:07:53;;;;;;;;;;;23.00;64.40;;;;;;5109891;28;19919;-68
2023/07/02 13:10:18;;;;;;;;;;;23.00;64.70;;;;;;5111267;28;19911;-68
2023/07/02 13:12:44;;;;;;;;;;;23.10;64.80;;;;;;5111266;28;19931;-68
2023/07/02 13:15:11;;;;;;;;;;;23.20;64.80;;;;;;5111294;28;20514;-68
2023/07/02 13:17:36;;;;;;;;;;;23.20;63.90;;;;;;5111159;28;19911;-68
2023/07/02 13:20:02;;;;;;;;;;;23.30;64.10;;;;;;5111232;28;19919;-69
2023/07/02 13:22:28;;;;;;;;;;;23.30;63.80;;;;;;5111257;28;19927;-68
2023/07/02 13:24:53;;;;;;;;;;;23.30;64.50;;;;;;5109864;28;19933;-68
2023/07/02 13:27:19;;;;;;;;;;;23.20;64.50;;;;;;5110739;28;19914;-68
2023/07/02 13:29:44;;;;;;;;;;;23.30;63.20;;;;;;5110932;28;20004;-68
2023/07/02 13:32:11;;;;;;;;;;;23.20;63.70;;;;;;5110934;28;19911;-68
2023/07/02 13:34:36;;;;;;;;;;;23.20;63.80;;;;;;5111049;28;19943;-68
2023/07/02 13:37:02;;;;;;;;;;;23.30;63.60;;;;;;5110545;28;19934;-68
2023/07/02 13:39:28;;;;;;;;;;;23.40;64.00;;;;;;5111154;28;19937;-68
2023/07/02 13:41:54;;;;;;;;;;;23.40;64.30;;;;;;5109465;27;19912;-68
2023/07/02 13:44:19;;;;;;;;;;;23.40;63.10;;;;;;5110983;28;19922;-68
2023/07/02 13:46:45;;;;;;;;;;;23.50;63.20;;;;;;5109993;28;19908;-69
2023/07/02 13:49:10;;;;;;;;;;;23.50;62.70;;;;;;5110727;28;20254;-68
2023/07/02 13:51:36;;;;;;;;;;;23.40;62.90;;;;;;5109810;28;20345;-68
2023/07/02 13:54:02;;;;;;;;;;;23.50;64.10;;;;;;5107404;28;19999;-68
2023/07/02 13:56:27;;;;;;;;;;;23.60;63.90;;;;;;5109013;28;19964;-69
2023/07/02 13:58:55;;;;;;;;;;;23.70;63.30;;;;;;5109537;28;20527;-69
2023/07/02 14:01:21;;;;;;;;;;;23.70;62.90;;;;;;5109729;27;19914;-69
2023/07/02 14:03:46;;;;;;;;;;;23.60;62.90;;;;;;5127399;27;19911;-68
2023/07/02 14:06:12;;;;;;;;;;;23.70;63.70;;;;;;5113973;27;20384;-68
2023/07/02 14:08:37;;;;;;;;;;;23.60;63.30;;;;;;5109520;28;19919;-69
2023/07/02 14:11:03;;;;;;;;;;;23.70;63.10;;;;;;5109244;28;19912;-68